TimeCST,TemperatureF,Dew PointF,Humidity,Sea Level PressureIn,VisibilityMPH,Wind Direction,Wind SpeedMPH,Gust SpeedMPH,PrecipitationIn,Events,Conditions,WindDirDegrees,DateUTC
1:53 AM,34.0,28.0,79,30.27,10.0,Calm,Calm,-,N/A,,Clear,0,2011-11-28 07:53:00
2:53 AM,33.1,28.0,82,30.25,10.0,Calm,Calm,-,N/A,,Clear,0,2011-11-28 08:53:00
3:53 AM,34.0,27.0,75,30.23,10.0,NNW,3.5,-,N/A,,Clear,340,2011-11-28 09:53:00
4:53 AM,33.1,28.0,82,30.23,10.0,Calm,Calm,-,N/A,,Clear,0,2011-11-28 10:53:00
5:53 AM,30.9,27.0,85,30.24,10.0,WSW,8.1,-,N/A,,Clear,250,2011-11-28 11:53:00
6:53 AM,33.1,26.1,75,30.24,10.0,Calm,Calm,-,N/A,,Clear,0,2011-11-28 12:53:00
7:53 AM,36.0,28.9,76,30.24,10.0,Calm,Calm,-,N/A,,Clear,0,2011-11-28 13:53:00
8:53 AM,44.1,28.9,55,30.23,10.0,Calm,Calm,-,N/A,,Clear,0,2011-11-28 14:53:00
9:53 AM,53.1,25.0,34,30.22,10.0,Calm,Calm,-,N/A,,Clear,0,2011-11-28 15:53:00
11:53 AM,62.1,16.0,17,30.18,10.0,WSW,4.6,-,N/A,,Clear,240,2011-11-28 17:53:00
12:53 PM,64.9,19.0,17,30.12,10.0,West,3.5,-,N/A,,Clear,280,2011-11-28 18:53:00
1:53 PM,68.0,19.9,16,30.09,10.0,Variable,5.8,-,N/A,,Clear,0,2011-11-28 19:53:00
2:53 PM,69.1,19.0,15,30.06,10.0,WSW,4.6,-,N/A,,Clear,250,2011-11-28 20:53:00
3:53 PM,70.0,21.0,16,30.04,10.0,SSW,4.6,-,N/A,,Clear,200,2011-11-28 21:53:00
4:53 PM,70.0,24.1,18,30.04,10.0,SSW,3.5,-,N/A,,Clear,200,2011-11-28 22:53:00
6:53 PM,53.1,36.0,52,30.05,10.0,Calm,Calm,-,N/A,,Clear,0,2011-11-29 00:53:00
7:53 PM,50.0,37.0,61,30.04,10.0,Calm,Calm,-,N/A,,Clear,0,2011-11-29 01:53:00
8:53 PM,48.9,37.0,64,30.05,10.0,Calm,Calm,-,N/A,,Clear,0,2011-11-29 02:53:00
9:53 PM,46.9,39.0,74,30.05,10.0,Calm,Calm,-,N/A,,Clear,0,2011-11-29 03:53:00
10:53 PM,44.1,37.9,79,30.06,10.0,Calm,Calm,-,N/A,,Clear,0,2011-11-29 04:53:00
11:53 PM,44.1,37.9,79,30.05,10.0,Calm,Calm,-,N/A,,Clear,0,2011-11-29 05:53:00